createdAt,value
2018-08-23T00:00:54.196Z,59.00
2018-08-23T00:03:42.401Z,59.30
2018-08-23T00:10:02.459Z,59.60
2018-08-23T00:12:47.562Z,59.80
2018-08-23T00:19:10.494Z,61.20
2018-08-23T00:21:50.504Z,61.20
2018-08-23T00:24:31.454Z,61.00
2018-08-23T00:29:48.482Z,61.10
2018-08-23T00:32:33.761Z,61.10
2018-08-23T00:35:22.084Z,61.40
2018-08-23T00:37:51.680Z,61.50
2018-08-23T00:40:31.136Z,61.60
2018-08-23T00:43:04.962Z,62.10
2018-08-23T00:45:35.664Z,62.60
2018-08-23T00:57:17.466Z,62.90
2018-08-23T00:59:51.398Z,62.70
2018-08-23T01:02:38.628Z,63.00
2018-08-23T01:05:10.494Z,63.90
2018-08-23T01:08:01.686Z,63.20
2018-08-23T01:10:31.172Z,63.30
2018-08-23T01:21:59.533Z,64.30
2018-08-23T01:27:59.468Z,64.70
2018-08-23T01:30:29.952Z,64.30
2018-08-23T01:40:01.070Z,66.00
2018-08-23T01:46:28.452Z,65.50
2018-08-23T01:49:16.135Z,65.90
2018-08-23T01:52:10.405Z,66.00
2018-08-23T01:55:14.429Z,66.60
2018-08-23T01:57:47.994Z,66.30
2018-08-23T02:00:30.879Z,66.40
2018-08-23T02:03:01.395Z,67.60
2018-08-23T02:05:43.640Z,68.80
2018-08-23T02:08:17.848Z,67.10
2018-08-23T02:11:05.835Z,68.10
2018-08-23T02:13:56.435Z,68.40
2018-08-23T02:16:45.388Z,69.50
2018-08-23T02:19:22.260Z,69.00
2018-08-23T02:21:53.231Z,69.10
2018-08-23T02:24:29.924Z,68.90
2018-08-23T02:33:06.024Z,68.40
2018-08-23T02:36:30.559Z,69.30
2018-08-23T02:39:20.496Z,70.30
2018-08-23T02:45:26.487Z,70.80
2018-08-23T02:50:51.021Z,70.80
2018-08-23T02:53:37.045Z,70.20
2018-08-23T02:56:19.394Z,70.00
2018-08-23T02:59:15.027Z,70.10
2018-08-23T03:04:46.205Z,70.10
2018-08-23T03:07:28.574Z,70.00
2018-08-23T03:10:06.940Z,70.50
2018-08-23T03:12:44.765Z,70.60
2018-08-23T03:17:56.831Z,70.60
2018-08-23T03:20:45.705Z,70.60
2018-08-23T03:23:28.712Z,71.20
2018-08-23T03:26:07.714Z,71.70
2018-08-23T03:28:54.428Z,71.60
2018-08-23T03:31:35.619Z,71.20
2018-08-23T03:34:22.273Z,71.70
2018-08-23T03:42:44.605Z,72.00
2018-08-23T03:45:23.914Z,73.10
2018-08-23T03:48:06.609Z,73.00
2018-08-23T03:50:44.472Z,72.30
2018-08-23T03:53:21.332Z,72.90
2018-08-23T03:56:08.246Z,72.70
2018-08-23T03:58:54.664Z,71.80
2018-08-23T04:01:37.145Z,71.90
2018-08-23T04:07:07.288Z,72.50
2018-08-23T04:09:57.772Z,72.30
2018-08-23T04:15:46.057Z,73.00
2018-08-23T04:18:29.369Z,72.50
2018-08-23T04:21:04.506Z,72.50
2018-08-23T04:23:49.016Z,72.40
2018-08-23T04:26:28.853Z,73.30
2018-08-23T04:29:16.559Z,72.80
2018-08-23T05:30:28.950Z,72.00
2018-08-23T05:33:20.962Z,71.70
2018-08-23T08:24:57.870Z,50.50
2018-08-23T08:27:36.112Z,46.00
2018-08-23T09:13:57.278Z,34.30
2018-08-23T09:36:26.892Z,33.70
2018-08-23T09:38:58.277Z,33.20
2018-08-23T09:41:31.264Z,32.80
2018-08-23T09:44:03.063Z,31.80
2018-08-23T10:35:46.810Z,30.20
2018-08-23T11:29:28.779Z,29.30
2018-08-23T17:26:00.857Z,32.00
2018-08-23T17:28:30.315Z,33.10
2018-08-23T17:30:59.878Z,34.20
2018-08-23T17:33:29.567Z,34.40
2018-08-23T17:35:59.667Z,34.40
2018-08-23T17:38:33.312Z,35.20
2018-08-23T17:41:04.839Z,34.70
2018-08-23T17:43:36.109Z,34.90
2018-08-23T17:46:06.907Z,35.00
2018-08-23T17:51:18.157Z,35.20
2018-08-23T17:53:49.310Z,35.30
2018-08-23T17:56:19.493Z,35.50
2018-08-23T17:58:51.903Z,35.60
2018-08-23T18:01:26.299Z,35.60
2018-08-23T18:03:59.019Z,35.80
2018-08-23T18:06:31.769Z,35.90
2018-08-23T18:09:06.388Z,36.10
2018-08-23T18:11:37.904Z,36.30
2018-08-23T18:14:12.112Z,36.50
2018-08-23T18:16:51.492Z,36.50
2018-08-23T18:22:00.253Z,37.10
2018-08-23T18:24:32.847Z,37.40
2018-08-23T18:27:02.575Z,37.70
2018-08-23T18:29:36.639Z,37.80
2018-08-23T18:32:06.147Z,38.00
2018-08-23T18:34:35.701Z,38.20
2018-08-23T20:08:52.773Z,44.60
2018-08-23T20:32:05.530Z,46.60
